createdAt,value
2019-01-08T00:01:49.005Z,50.40
2019-01-08T00:04:15.259Z,50.50
2019-01-08T00:06:41.526Z,50.60
2019-01-08T00:09:07.843Z,50.70
2019-01-08T00:11:34.045Z,50.60
2019-01-08T00:14:00.314Z,50.50
2019-01-08T00:16:26.581Z,50.50
2019-01-08T00:18:52.865Z,50.50
2019-01-08T00:21:19.119Z,50.40
2019-01-08T00:23:45.385Z,50.50
2019-01-08T00:26:11.625Z,50.60
2019-01-08T00:28:43.126Z,51.00
2019-01-08T00:31:05.963Z,50.80
2019-01-08T00:33:32.215Z,50.90
2019-01-08T00:35:58.435Z,50.90
2019-01-08T00:38:24.735Z,50.90
2019-01-08T00:40:50.951Z,51.00
2019-01-08T00:43:17.335Z,51.10
2019-01-08T00:45:43.584Z,51.10
2019-01-08T00:48:09.857Z,51.20
2019-01-08T00:50:36.105Z,51.20
2019-01-08T00:53:02.342Z,51.20
2019-01-08T00:55:28.583Z,51.10
2019-01-08T00:57:54.844Z,51.00
2019-01-08T01:00:21.085Z,50.80
2019-01-08T01:02:47.316Z,50.80
2019-01-08T01:05:13.595Z,50.70
2019-01-08T01:07:39.999Z,50.60
2019-01-08T01:10:06.657Z,50.50
2019-01-08T01:12:32.915Z,50.50
2019-01-08T01:14:59.170Z,50.50
2019-01-08T01:17:25.424Z,50.30
2019-01-08T01:19:51.684Z,50.30
2019-01-08T01:22:17.907Z,50.20
2019-01-08T01:24:44.063Z,50.30
2019-01-08T01:27:10.301Z,50.40
2019-01-08T01:29:36.590Z,50.40
2019-01-08T01:32:02.817Z,50.50
2019-01-08T01:34:28.968Z,50.50
2019-01-08T01:36:55.223Z,50.60
2019-01-08T01:39:21.473Z,50.60
2019-01-08T01:41:47.699Z,50.70
2019-01-08T01:44:13.877Z,50.60
2019-01-08T01:46:40.117Z,50.80
2019-01-08T01:49:06.385Z,50.80
2019-01-08T01:51:32.615Z,51.00
2019-01-08T01:53:58.863Z,51.00
2019-01-08T01:56:25.109Z,51.10
2019-01-08T01:58:51.357Z,51.00
2019-01-08T02:01:17.614Z,51.00
2019-01-08T02:03:43.845Z,51.20
2019-01-08T02:06:10.081Z,51.20
2019-01-08T02:08:36.255Z,51.20
2019-01-08T02:11:02.474Z,51.20
2019-01-08T02:13:28.719Z,51.40
2019-01-08T02:15:54.979Z,51.40
2019-01-08T02:18:21.221Z,51.40
2019-01-08T02:20:47.343Z,51.50
2019-01-08T02:23:13.469Z,51.40
2019-01-08T02:25:39.727Z,51.50
2019-01-08T02:28:06.018Z,51.50
2019-01-08T02:30:32.256Z,51.50
2019-01-08T02:32:58.485Z,51.50
2019-01-08T02:35:24.701Z,51.50
2019-01-08T02:37:50.832Z,51.60
2019-01-08T02:40:17.172Z,51.50
2019-01-08T02:42:43.422Z,51.50
2019-01-08T02:45:09.575Z,51.60
2019-01-08T02:47:35.705Z,51.60
2019-01-08T02:50:01.964Z,51.40
2019-01-08T02:52:28.174Z,51.50
2019-01-08T02:54:54.366Z,51.60
2019-01-08T02:57:20.615Z,51.60
2019-01-08T02:59:48.785Z,51.60
2019-01-08T03:02:14.892Z,51.60
2019-01-08T03:04:41.132Z,51.60
2019-01-08T03:07:07.354Z,51.60
2019-01-08T03:09:35.440Z,51.60
2019-01-08T03:12:01.675Z,51.60
2019-01-08T03:14:27.978Z,51.40
2019-01-08T03:16:54.209Z,51.50
2019-01-08T03:19:20.442Z,51.40
2019-01-08T03:21:46.593Z,51.40
2019-01-08T03:24:12.842Z,51.30
2019-01-08T03:26:39.068Z,51.40
2019-01-08T03:29:05.325Z,51.50
2019-01-08T03:31:31.561Z,51.50
2019-01-08T03:33:57.802Z,51.40
2019-01-08T03:36:24.886Z,51.10
2019-01-08T03:38:51.294Z,51.20
2019-01-08T03:41:17.517Z,51.20
2019-01-08T03:43:43.697Z,51.10
2019-01-08T03:46:09.910Z,51.20
2019-01-08T03:48:36.164Z,51.20
2019-01-08T03:51:02.515Z,51.10
2019-01-08T03:53:28.770Z,50.80
2019-01-08T03:55:55.020Z,50.60
2019-01-08T03:58:21.268Z,50.50
2019-01-08T04:00:47.534Z,50.60
2019-01-08T04:03:13.753Z,50.60
2019-01-08T04:05:39.928Z,50.60
2019-01-08T04:08:06.206Z,50.50
2019-01-08T04:10:32.457Z,50.40
2019-01-08T04:12:58.756Z,50.10
2019-01-08T04:15:25.210Z,49.80
2019-01-08T04:17:51.430Z,49.90
2019-01-08T04:20:17.600Z,49.80
2019-01-08T04:22:43.859Z,49.70
2019-01-08T04:25:10.110Z,49.80
2019-01-08T04:27:36.360Z,50.10
2019-01-08T04:30:03.848Z,50.20
2019-01-08T04:32:30.178Z,50.10
2019-01-08T04:34:56.438Z,50.20
2019-01-08T04:37:22.674Z,50.30
2019-01-08T04:39:48.918Z,50.40
2019-01-08T04:42:15.179Z,50.50
2019-01-08T04:44:41.504Z,50.30
2019-01-08T04:47:07.743Z,50.30
2019-01-08T04:49:33.973Z,50.70
2019-01-08T04:52:00.131Z,50.30
2019-01-08T04:54:26.398Z,50.30
2019-01-08T04:56:52.622Z,50.20
2019-01-08T04:59:18.790Z,50.10
2019-01-08T05:01:45.047Z,49.70
2019-01-08T05:04:11.294Z,49.90
2019-01-08T05:06:37.444Z,50.00
2019-01-08T05:09:04.222Z,50.10
2019-01-08T05:11:30.494Z,50.20
2019-01-08T05:13:56.739Z,50.30
2019-01-08T05:16:22.984Z,50.60
2019-01-08T05:18:49.213Z,50.70
2019-01-08T05:21:15.354Z,50.80
2019-01-08T05:23:41.603Z,51.00
2019-01-08T05:26:07.754Z,51.20
2019-01-08T05:28:34.022Z,51.50
2019-01-08T05:31:00.300Z,51.80
2019-01-08T05:33:26.522Z,52.00
2019-01-08T05:35:52.782Z,52.20
2019-01-08T05:38:19.047Z,52.40
2019-01-08T05:40:45.302Z,52.60
2019-01-08T05:43:11.577Z,52.60
2019-01-08T05:45:37.861Z,53.10
2019-01-08T05:48:04.114Z,52.80
2019-01-08T05:50:30.473Z,52.90
2019-01-08T05:52:56.722Z,53.00
2019-01-08T05:55:22.985Z,53.10
2019-01-08T05:57:49.208Z,53.20
2019-01-08T06:00:16.606Z,53.30
2019-01-08T06:02:43.015Z,53.40
2019-01-08T06:05:09.252Z,53.50
2019-01-08T06:07:35.486Z,53.60
2019-01-08T06:10:01.645Z,53.50
2019-01-08T06:12:27.885Z,53.50
2019-01-08T06:14:54.154Z,53.50
2019-01-08T06:17:20.403Z,53.60
2019-01-08T06:19:46.633Z,53.60
2019-01-08T06:22:12.786Z,53.50
2019-01-08T06:24:39.037Z,53.70
2019-01-08T06:27:05.305Z,53.70
2019-01-08T06:29:31.575Z,53.80
2019-01-08T06:31:57.859Z,53.80
2019-01-08T06:34:24.083Z,53.80
2019-01-08T06:36:50.354Z,53.90
2019-01-08T06:39:16.586Z,53.90
2019-01-08T06:41:44.247Z,54.00
2019-01-08T06:44:10.699Z,54.00
2019-01-08T06:46:43.064Z,54.00
2019-01-08T06:49:05.004Z,53.90
2019-01-08T06:51:31.265Z,53.90
2019-01-08T06:53:57.513Z,53.90
2019-01-08T06:56:23.742Z,53.90
2019-01-08T06:58:49.918Z,53.80
2019-01-08T07:01:16.179Z,53.80
2019-01-08T07:03:42.419Z,53.90
2019-01-08T07:06:08.661Z,53.90
2019-01-08T07:08:34.919Z,53.90
2019-01-08T07:11:01.163Z,53.80
2019-01-08T07:13:27.435Z,53.70
2019-01-08T07:15:53.679Z,53.70
2019-01-08T07:18:19.903Z,53.70
2019-01-08T07:20:46.065Z,53.80
2019-01-08T07:23:12.339Z,53.70
2019-01-08T07:25:42.207Z,53.60
2019-01-08T07:28:06.629Z,53.70
2019-01-08T07:30:41.028Z,53.60
2019-01-08T07:33:00.943Z,53.50
2019-01-08T07:35:27.235Z,53.60
2019-01-08T07:37:53.522Z,53.60
2019-01-08T07:40:19.770Z,53.60
2019-01-08T07:42:46.013Z,53.60
2019-01-08T07:45:12.313Z,53.60
2019-01-08T07:47:38.576Z,53.50
2019-01-08T07:50:07.837Z,53.30
2019-01-08T07:52:34.094Z,53.40
2019-01-08T07:55:00.355Z,53.40
2019-01-08T07:57:26.605Z,53.30
2019-01-08T07:59:52.858Z,53.30
2019-01-08T08:02:19.102Z,53.30
2019-01-08T08:04:47.746Z,53.30
2019-01-08T08:07:13.414Z,53.20
2019-01-08T08:09:39.644Z,53.10
2019-01-08T08:12:05.790Z,52.90
2019-01-08T08:14:31.914Z,52.90
2019-01-08T08:16:58.073Z,52.70
2019-01-08T08:19:24.290Z,52.70
2019-01-08T08:21:51.836Z,52.60
2019-01-08T08:24:18.098Z,52.50
2019-01-08T08:26:44.351Z,52.60
2019-01-08T08:29:10.605Z,52.50
2019-01-08T08:31:36.878Z,52.50
2019-01-08T08:34:03.122Z,52.50
2019-01-08T08:36:29.387Z,52.60
2019-01-08T08:38:55.649Z,52.60
2019-01-08T08:41:21.885Z,52.60
2019-01-08T08:43:48.058Z,52.60
2019-01-08T08:46:14.300Z,52.50
2019-01-08T08:48:40.582Z,52.50
2019-01-08T08:51:06.867Z,52.50
2019-01-08T08:53:33.113Z,52.40
2019-01-08T08:55:59.352Z,52.50
2019-01-08T08:58:25.601Z,52.60
2019-01-08T09:00:51.847Z,52.60
2019-01-08T09:03:18.108Z,52.40
2019-01-08T09:05:44.355Z,52.50
2019-01-08T09:08:10.622Z,52.50
2019-01-08T09:10:36.826Z,52.60
2019-01-08T09:13:02.974Z,52.40
2019-01-08T09:15:29.227Z,52.50
2019-01-08T09:17:55.516Z,52.50
2019-01-08T09:20:21.762Z,52.50
2019-01-08T09:22:48.065Z,52.50
2019-01-08T09:25:14.261Z,52.30
2019-01-08T09:27:40.399Z,52.30
2019-01-08T09:30:08.658Z,52.50
2019-01-08T09:32:34.902Z,52.40
2019-01-08T09:35:01.750Z,52.30
2019-01-08T09:37:27.972Z,52.50
2019-01-08T09:39:54.230Z,52.50
2019-01-08T09:42:20.486Z,52.40
2019-01-08T09:44:46.763Z,52.40
2019-01-08T09:47:13.030Z,52.40
2019-01-08T09:49:39.260Z,52.30
2019-01-08T09:52:05.423Z,52.20
2019-01-08T09:54:31.687Z,52.40
2019-01-08T09:56:57.950Z,52.40
2019-01-08T09:59:24.270Z,52.10
2019-01-08T10:01:50.548Z,52.10
2019-01-08T10:04:16.794Z,52.20
2019-01-08T10:06:43.048Z,52.30
2019-01-08T10:09:09.284Z,52.30
2019-01-08T10:11:35.544Z,52.60
2019-01-08T10:14:01.839Z,52.50
2019-01-08T10:16:28.088Z,52.60
2019-01-08T10:18:54.354Z,52.50
2019-01-08T10:21:20.598Z,52.50
2019-01-08T10:23:46.854Z,52.50
2019-01-08T10:26:13.082Z,52.70
2019-01-08T10:28:39.250Z,52.80
2019-01-08T10:31:05.499Z,52.80
2019-01-08T10:33:31.736Z,52.70
2019-01-08T10:35:58.169Z,52.90
2019-01-08T10:38:24.356Z,52.80
2019-01-08T10:40:50.619Z,52.80
2019-01-08T10:43:16.910Z,52.60
2019-01-08T10:45:43.173Z,52.80
2019-01-08T10:48:09.447Z,53.00
2019-01-08T10:50:35.714Z,53.10
2019-01-08T10:53:01.955Z,53.20
2019-01-08T10:55:28.194Z,53.30
2019-01-08T10:57:54.374Z,53.40
2019-01-08T11:00:20.737Z,53.60
2019-01-08T11:02:46.993Z,53.40
2019-01-08T11:05:13.227Z,53.50
2019-01-08T11:07:39.520Z,53.40
2019-01-08T11:10:07.545Z,53.40
2019-01-08T11:12:33.715Z,53.50
2019-01-08T11:14:59.936Z,53.40
2019-01-08T11:17:26.187Z,53.60
2019-01-08T11:19:52.322Z,53.60
2019-01-08T11:22:18.573Z,53.70
2019-01-08T11:24:44.825Z,53.60
2019-01-08T11:27:11.063Z,53.50
2019-01-08T11:29:37.373Z,53.50
2019-01-08T11:32:03.653Z,53.70
2019-01-08T11:34:29.903Z,53.70
2019-01-08T11:36:56.162Z,53.60
2019-01-08T11:39:22.509Z,53.70
2019-01-08T11:41:48.778Z,53.60
2019-01-08T11:44:15.055Z,53.70
2019-01-08T11:46:41.316Z,53.60
2019-01-08T11:49:07.599Z,53.70
2019-01-08T11:51:33.842Z,53.70
2019-01-08T11:54:00.103Z,53.80
2019-01-08T11:56:26.348Z,53.90
2019-01-08T11:58:52.623Z,53.60
2019-01-08T12:01:18.883Z,53.70
2019-01-08T12:03:45.175Z,53.70
2019-01-08T12:06:11.409Z,53.90
2019-01-08T12:08:37.699Z,53.90
2019-01-08T12:11:03.963Z,54.00
2019-01-08T12:13:30.216Z,53.90
2019-01-08T12:15:56.377Z,53.90
2019-01-08T12:18:22.634Z,53.90
2019-01-08T12:20:48.910Z,53.90
2019-01-08T12:23:15.191Z,54.00
2019-01-08T12:25:41.437Z,54.00
2019-01-08T12:28:07.677Z,54.20
2019-01-08T12:30:33.923Z,54.00
2019-01-08T12:33:00.157Z,54.00
2019-01-08T12:35:26.432Z,54.10
2019-01-08T12:37:52.668Z,54.10
2019-01-08T12:40:18.915Z,54.20
2019-01-08T12:42:45.153Z,54.10
2019-01-08T12:45:11.437Z,54.10
2019-01-08T12:47:37.720Z,54.10
2019-01-08T12:50:05.754Z,54.20
2019-01-08T12:52:32.012Z,54.20
2019-01-08T12:54:58.249Z,54.10
2019-01-08T12:57:24.496Z,54.10
2019-01-08T12:59:50.756Z,54.20
2019-01-08T13:02:17.009Z,54.20
2019-01-08T13:04:43.231Z,54.30
2019-01-08T13:07:09.502Z,54.30
2019-01-08T13:09:35.771Z,54.40
2019-01-08T13:12:02.012Z,54.40
2019-01-08T13:14:28.259Z,54.70
2019-01-08T13:16:54.512Z,54.40
2019-01-08T13:19:20.768Z,54.30
2019-01-08T13:21:47.010Z,54.40
2019-01-08T13:24:13.283Z,54.40
2019-01-08T13:26:39.530Z,54.30
2019-01-08T13:29:05.780Z,54.20
2019-01-08T13:31:32.018Z,54.40
2019-01-08T13:33:59.749Z,54.30
2019-01-08T13:36:26.131Z,54.30
2019-01-08T13:38:52.368Z,54.30
2019-01-08T13:41:18.608Z,54.50
2019-01-08T13:43:44.897Z,54.70
2019-01-08T13:46:11.169Z,54.60
2019-01-08T13:48:37.423Z,54.50
2019-01-08T13:51:03.691Z,54.80
2019-01-08T13:53:29.945Z,54.80
2019-01-08T13:55:56.209Z,54.80
2019-01-08T13:58:22.503Z,54.90
2019-01-08T14:00:48.745Z,54.70
2019-01-08T14:03:15.026Z,54.80
2019-01-08T14:05:41.253Z,54.90
2019-01-08T14:08:07.422Z,54.80
2019-01-08T14:10:33.671Z,54.70
2019-01-08T14:12:59.970Z,54.70
2019-01-08T14:15:26.277Z,54.80
2019-01-08T14:17:52.566Z,54.80
2019-01-08T14:20:18.794Z,54.80
2019-01-08T14:22:45.039Z,54.70
2019-01-08T14:25:11.196Z,54.60
2019-01-08T14:27:37.461Z,54.80
2019-01-08T14:30:07.092Z,54.70
2019-01-08T14:32:40.572Z,54.60
2019-01-08T14:35:01.521Z,54.60
2019-01-08T14:37:27.780Z,54.40
2019-01-08T14:39:54.158Z,54.80
2019-01-08T14:42:20.399Z,54.60
2019-01-08T14:44:46.673Z,54.50
2019-01-08T14:47:12.938Z,54.60
2019-01-08T14:49:39.190Z,54.60
2019-01-08T14:52:05.457Z,54.50
2019-01-08T14:54:31.765Z,54.70
2019-01-08T14:56:58.017Z,54.60
2019-01-08T14:59:26.381Z,54.60
2019-01-08T15:01:52.294Z,54.60
2019-01-08T15:04:18.440Z,54.60
2019-01-08T15:06:44.691Z,54.60
2019-01-08T15:09:10.938Z,54.50
2019-01-08T15:11:37.178Z,54.60
2019-01-08T15:14:03.438Z,54.50
2019-01-08T15:16:29.708Z,54.60
2019-01-08T15:18:55.942Z,54.30
2019-01-08T15:21:22.943Z,54.50
2019-01-08T15:23:49.250Z,54.50
2019-01-08T15:26:15.478Z,54.50
2019-01-08T15:28:41.758Z,54.60
2019-01-08T15:31:08.020Z,54.60
2019-01-08T15:33:34.262Z,54.70
2019-01-08T15:36:00.478Z,54.70
2019-01-08T15:38:26.654Z,54.70
2019-01-08T15:40:52.810Z,54.60
2019-01-08T15:43:19.087Z,54.80
2019-01-08T15:45:45.334Z,54.70
2019-01-08T15:48:11.594Z,54.60
2019-01-08T15:50:37.860Z,54.60
2019-01-08T15:53:04.134Z,54.70
2019-01-08T15:55:30.374Z,54.70
2019-01-08T15:57:56.546Z,54.40
2019-01-08T16:00:22.780Z,54.30
2019-01-08T16:02:49.033Z,54.20
2019-01-08T16:05:15.288Z,54.20
2019-01-08T16:07:41.449Z,54.10
2019-01-08T16:10:07.596Z,54.00
2019-01-08T16:12:33.875Z,54.00
2019-01-08T16:15:00.138Z,53.80
2019-01-08T16:17:26.412Z,53.90
2019-01-08T16:19:52.736Z,53.50
2019-01-08T16:22:19.032Z,53.90
2019-01-08T16:24:45.328Z,53.40
2019-01-08T16:27:11.564Z,53.50
2019-01-08T16:29:37.836Z,53.60
2019-01-08T16:32:04.078Z,53.60
2019-01-08T16:34:30.397Z,53.60
2019-01-08T16:36:56.623Z,53.40
2019-01-08T16:39:22.896Z,53.40
2019-01-08T16:41:49.160Z,53.50
2019-01-08T16:44:15.431Z,53.50
2019-01-08T16:46:41.684Z,53.40
2019-01-08T16:49:07.991Z,53.50
2019-01-08T16:51:34.251Z,53.50
2019-01-08T16:54:00.557Z,53.50
2019-01-08T16:56:26.775Z,53.50
2019-01-08T16:58:53.112Z,53.50
2019-01-08T17:01:19.295Z,53.40
2019-01-08T17:03:45.662Z,53.30
2019-01-08T17:06:11.914Z,53.30
2019-01-08T17:08:38.191Z,53.40
2019-01-08T17:11:04.417Z,53.30
2019-01-08T17:13:30.689Z,53.50
2019-01-08T17:15:56.942Z,53.50
2019-01-08T17:18:23.287Z,53.50
2019-01-08T17:20:49.616Z,53.80
2019-01-08T17:23:15.866Z,53.40
2019-01-08T17:25:47.763Z,53.40
2019-01-08T17:28:10.199Z,53.20
2019-01-08T17:30:36.452Z,53.20
2019-01-08T17:33:02.710Z,53.30
2019-01-08T17:35:29.048Z,53.00
2019-01-08T17:37:55.461Z,53.10
2019-01-08T17:40:21.695Z,53.20
2019-01-08T17:42:47.934Z,53.60
2019-01-08T17:45:14.087Z,53.60
2019-01-08T17:47:40.462Z,53.60
2019-01-08T17:50:06.685Z,53.50
2019-01-08T17:52:33.012Z,53.40
2019-01-08T17:54:59.281Z,53.30
2019-01-08T17:57:25.554Z,53.30
2019-01-08T17:59:51.701Z,53.20
2019-01-08T18:02:17.935Z,53.00
2019-01-08T18:04:44.230Z,53.00
2019-01-08T18:07:10.495Z,52.90
2019-01-08T18:09:36.765Z,52.80
2019-01-08T18:12:03.006Z,52.70
2019-01-08T18:14:29.259Z,52.60
2019-01-08T18:16:55.504Z,52.80
2019-01-08T18:19:21.783Z,52.40
2019-01-08T18:21:48.042Z,52.60
2019-01-08T18:24:14.312Z,52.50
2019-01-08T18:26:40.579Z,52.40
2019-01-08T18:29:06.846Z,52.30
2019-01-08T18:31:33.103Z,52.00
2019-01-08T18:33:59.375Z,52.30
2019-01-08T18:36:25.612Z,52.20
2019-01-08T18:38:51.862Z,52.40
2019-01-08T18:41:18.216Z,52.40
2019-01-08T18:43:44.443Z,52.50
2019-01-08T18:46:10.791Z,52.40
2019-01-08T18:48:37.089Z,52.30
2019-01-08T18:51:03.449Z,52.70
2019-01-08T18:53:29.713Z,52.70
2019-01-08T18:55:55.970Z,52.70
2019-01-08T18:58:22.260Z,52.60
2019-01-08T19:00:48.511Z,52.30
2019-01-08T19:03:14.763Z,52.30
2019-01-08T19:05:41.002Z,52.20
2019-01-08T19:08:07.262Z,52.30
2019-01-08T19:10:33.515Z,52.30
2019-01-08T19:12:59.698Z,52.20
2019-01-08T19:15:25.958Z,52.30
2019-01-08T19:17:52.220Z,52.30
2019-01-08T19:20:18.400Z,52.20
2019-01-08T19:22:44.746Z,52.30
2019-01-08T19:25:11.001Z,52.10
2019-01-08T19:27:37.233Z,52.10
2019-01-08T19:30:06.286Z,52.30
2019-01-08T19:32:32.515Z,52.40
2019-01-08T19:34:58.762Z,52.40
2019-01-08T19:37:25.086Z,52.40
2019-01-08T19:39:51.383Z,52.40
2019-01-08T19:42:17.615Z,52.40
2019-01-08T19:44:43.880Z,52.30
2019-01-08T19:47:10.108Z,52.20
2019-01-08T19:49:36.381Z,52.40
2019-01-08T19:52:02.620Z,52.50
2019-01-08T19:54:28.872Z,52.60
2019-01-08T19:56:55.045Z,52.50
2019-01-08T19:59:21.301Z,52.80
2019-01-08T20:01:47.544Z,52.70
2019-01-08T20:04:17.973Z,52.90
2019-01-08T20:06:41.864Z,52.90
2019-01-08T20:09:08.142Z,53.00
2019-01-08T20:11:34.370Z,52.70
2019-01-08T20:14:00.558Z,52.80
2019-01-08T20:16:26.904Z,52.50
2019-01-08T20:18:53.160Z,52.70
2019-01-08T20:21:19.425Z,52.80
2019-01-08T20:23:45.700Z,52.80
2019-01-08T20:26:11.947Z,52.80
2019-01-08T20:28:38.196Z,53.00
2019-01-08T20:31:04.368Z,52.80
2019-01-08T20:33:30.656Z,53.20
2019-01-08T20:35:59.012Z,52.90
2019-01-08T20:38:25.062Z,52.80
2019-01-08T20:40:51.307Z,52.70
2019-01-08T20:43:17.715Z,52.80
2019-01-08T20:45:43.992Z,52.60
2019-01-08T20:48:10.264Z,52.50
2019-01-08T20:50:36.501Z,52.50
2019-01-08T20:53:02.738Z,52.70
2019-01-08T20:55:28.982Z,52.50
2019-01-08T20:57:55.162Z,52.40
2019-01-08T21:00:21.447Z,52.50
2019-01-08T21:02:47.786Z,52.60
2019-01-08T21:05:14.084Z,52.60
2019-01-08T21:07:40.316Z,52.50
2019-01-08T21:10:07.015Z,52.50
2019-01-08T21:12:33.296Z,52.50
2019-01-08T21:14:59.717Z,52.60
2019-01-08T21:17:25.957Z,52.40
2019-01-08T21:19:52.355Z,52.40
2019-01-08T21:22:18.655Z,52.40
2019-01-08T21:24:44.913Z,52.50
2019-01-08T21:27:11.171Z,52.50
2019-01-08T21:29:37.435Z,52.60
2019-01-08T21:32:03.674Z,52.50
2019-01-08T21:34:29.983Z,52.40
2019-01-08T21:36:56.201Z,52.20
2019-01-08T21:39:22.554Z,52.10
2019-01-08T21:41:48.825Z,52.00
2019-01-08T21:44:15.123Z,52.10
2019-01-08T21:46:41.367Z,52.00
2019-01-08T21:49:07.631Z,52.20
2019-01-08T21:51:33.887Z,52.30
2019-01-08T21:54:00.158Z,52.40
2019-01-08T21:56:26.489Z,52.50
2019-01-08T21:58:52.738Z,52.60
2019-01-08T22:01:19.378Z,52.50
2019-01-08T22:03:45.657Z,52.60
2019-01-08T22:06:11.928Z,52.50
2019-01-08T22:08:38.201Z,52.50
2019-01-08T22:11:04.445Z,52.60
2019-01-08T22:13:30.709Z,52.50
2019-01-08T22:15:57.287Z,52.30
2019-01-08T22:18:23.534Z,52.40
2019-01-08T22:20:49.786Z,52.50
2019-01-08T22:23:16.048Z,52.50
2019-01-08T22:25:42.471Z,52.90
2019-01-08T22:28:08.774Z,52.60
2019-01-08T22:30:35.055Z,52.60
2019-01-08T22:33:01.317Z,52.60
2019-01-08T22:35:27.581Z,52.50
2019-01-08T22:37:53.819Z,52.40
2019-01-08T22:40:20.077Z,52.50
2019-01-08T22:42:46.205Z,52.40
2019-01-08T22:45:13.504Z,52.30
2019-01-08T22:47:39.759Z,52.50
2019-01-08T22:50:06.708Z,52.60
2019-01-08T22:52:34.827Z,52.60
2019-01-08T22:55:00.990Z,52.60
2019-01-08T22:57:27.129Z,52.70
2019-01-08T22:59:53.369Z,52.70
2019-01-08T23:02:19.509Z,52.80
2019-01-08T23:04:45.755Z,52.80
2019-01-08T23:07:12.005Z,52.90
2019-01-08T23:09:38.264Z,52.80
2019-01-08T23:12:04.506Z,52.90
2019-01-08T23:14:30.801Z,52.80
2019-01-08T23:16:57.046Z,52.70
2019-01-08T23:19:23.306Z,52.80
2019-01-08T23:21:49.552Z,52.90
2019-01-08T23:24:15.820Z,53.00
2019-01-08T23:26:42.205Z,52.90
2019-01-08T23:29:08.449Z,53.40
2019-01-08T23:31:34.717Z,53.10
2019-01-08T23:34:00.947Z,53.10
2019-01-08T23:36:27.098Z,53.20
2019-01-08T23:38:53.429Z,53.00
2019-01-08T23:41:19.667Z,53.10
2019-01-08T23:43:45.934Z,53.00
2019-01-08T23:46:12.165Z,53.00
2019-01-08T23:48:38.421Z,52.70
2019-01-08T23:51:04.683Z,52.70
2019-01-08T23:53:30.921Z,52.70
2019-01-08T23:55:58.693Z,52.60
2019-01-08T23:58:24.927Z,52.30
